sensor_id;sensor_type;location;lat;lon;timestamp;pressure;altitude;pressure_sealevel;temperature;humidity
11678;BME280;5895;41.950;24.372;2024-02-26T00:00:46;86415.16;;;5.86;88.88
11678;BME280;5895;41.950;24.372;2024-02-26T00:03:15;86417.97;;;5.84;89.26
11678;BME280;5895;41.950;24.372;2024-02-26T00:05:42;86418.31;;;5.88;89.00
11678;BME280;5895;41.950;24.372;2024-02-26T00:08:09;86417.53;;;5.87;89.59
11678;BME280;5895;41.950;24.372;2024-02-26T00:10:36;86420.31;;;5.86;89.31
11678;BME280;5895;41.950;24.372;2024-02-26T00:13:03;86427.44;;;5.83;90.05
11678;BME280;5895;41.950;24.372;2024-02-26T00:15:30;86429.44;;;5.81;90.33
11678;BME280;5895;41.950;24.372;2024-02-26T00:18:00;86422.72;;;5.80;90.02
11678;BME280;5895;41.950;24.372;2024-02-26T00:20:29;86417.19;;;5.77;90.32
11678;BME280;5895;41.950;24.372;2024-02-26T00:22:56;86406.91;;;5.77;90.80
11678;BME280;5895;41.950;24.372;2024-02-26T00:25:23;86416.41;;;5.76;90.76
11678;BME280;5895;41.950;24.372;2024-02-26T00:27:50;86412.84;;;5.77;90.73
11678;BME280;5895;41.950;24.372;2024-02-26T00:30:17;86414.84;;;5.75;90.49
11678;BME280;5895;41.950;24.372;2024-02-26T00:32:44;86411.69;;;5.73;91.33
11678;BME280;5895;41.950;24.372;2024-02-26T00:35:11;86412.88;;;5.71;91.58
11678;BME280;5895;41.950;24.372;2024-02-26T00:37:40;86417.25;;;5.70;91.64
11678;BME280;5895;41.950;24.372;2024-02-26T00:40:09;86419.25;;;5.68;91.58
11678;BME280;5895;41.950;24.372;2024-02-26T00:42:36;86422.84;;;5.67;91.45
11678;BME280;5895;41.950;24.372;2024-02-26T00:45:03;86416.09;;;5.66;91.75
11678;BME280;5895;41.950;24.372;2024-02-26T00:47:32;86409.38;;;5.65;91.08
11678;BME280;5895;41.950;24.372;2024-02-26T00:49:58;86411.94;;;5.65;91.48
11678;BME280;5895;41.950;24.372;2024-02-26T00:52:25;86414.50;;;5.65;91.39
11678;BME280;5895;41.950;24.372;2024-02-26T00:54:54;86399.91;;;5.59;91.51
11678;BME280;5895;41.950;24.372;2024-02-26T00:57:21;86405.44;;;5.63;91.07
11678;BME280;5895;41.950;24.372;2024-02-26T00:59:48;86402.66;;;5.64;90.64
11678;BME280;5895;41.950;24.372;2024-02-26T01:02:16;86399.84;;;5.66;90.95
11678;BME280;5895;41.950;24.372;2024-02-26T01:04:46;86399.06;;;5.65;90.62
11678;BME280;5895;41.950;24.372;2024-02-26T01:07:13;86392.34;;;5.64;90.68
11678;BME280;5895;41.950;24.372;2024-02-26T01:09:42;86395.50;;;5.66;90.51
11678;BME280;5895;41.950;24.372;2024-02-26T01:12:10;86388.00;;;5.65;91.04
11678;BME280;5895;41.950;24.372;2024-02-26T01:14:37;86385.63;;;5.63;90.83
11678;BME280;5895;41.950;24.372;2024-02-26T01:17:04;86383.63;;;5.65;91.04
11678;BME280;5895;41.950;24.372;2024-02-26T01:19:31;86382.06;;;5.64;90.91
11678;BME280;5895;41.950;24.372;2024-02-26T01:21:59;86386.41;;;5.64;90.94
11678;BME280;5895;41.950;24.372;2024-02-26T01:24:26;86384.06;;;5.62;91.40
11678;BME280;5895;41.950;24.372;2024-02-26T01:26:53;86378.91;;;5.62;90.84
11678;BME280;5895;41.950;24.372;2024-02-26T01:29:21;86375.34;;;5.63;91.21
11678;BME280;5895;41.950;24.372;2024-02-26T01:31:48;86378.91;;;5.62;90.91
11678;BME280;5895;41.950;24.372;2024-02-26T01:34:15;86379.69;;;5.63;91.36
11678;BME280;5895;41.950;24.372;2024-02-26T01:36:44;86381.91;;;5.59;90.86
11678;BME280;5895;41.950;24.372;2024-02-26T01:39:11;86374.75;;;5.61;91.22
11678;BME280;5895;41.950;24.372;2024-02-26T01:41:39;86375.75;;;5.60;91.32
11678;BME280;5895;41.950;24.372;2024-02-26T01:44:07;86371.59;;;5.59;91.09
11678;BME280;5895;41.950;24.372;2024-02-26T01:46:41;86374.19;;;5.59;91.74
11678;BME280;5895;41.950;24.372;2024-02-26T01:49:11;86368.25;;;5.58;91.58
11678;BME280;5895;41.950;24.372;2024-02-26T01:51:40;86363.88;;;5.59;90.52
11678;BME280;5895;41.950;24.372;2024-02-26T01:54:09;86358.16;;;5.57;90.64
11678;BME280;5895;41.950;24.372;2024-02-26T01:56:37;86362.31;;;5.58;91.22
11678;BME280;5895;41.950;24.372;2024-02-26T01:59:05;86358.34;;;5.55;90.84
11678;BME280;5895;41.950;24.372;2024-02-26T02:01:34;86357.56;;;5.55;90.69
11678;BME280;5895;41.950;24.372;2024-02-26T02:04:03;86348.28;;;5.54;91.24
11678;BME280;5895;41.950;24.372;2024-02-26T02:06:30;86340.78;;;5.52;90.70
11678;BME280;5895;41.950;24.372;2024-02-26T02:08:57;86339.00;;;5.53;90.80
11678;BME280;5895;41.950;24.372;2024-02-26T02:11:26;86342.56;;;5.52;91.25
11678;BME280;5895;41.950;24.372;2024-02-26T02:13:54;86337.81;;;5.49;91.40
11678;BME280;5895;41.950;24.372;2024-02-26T02:16:21;86337.81;;;5.49;90.85
11678;BME280;5895;41.950;24.372;2024-02-26T02:18:48;86337.25;;;5.47;91.01
11678;BME280;5895;41.950;24.372;2024-02-26T02:21:17;86346.97;;;5.45;89.90
11678;BME280;5895;41.950;24.372;2024-02-26T02:23:44;86350.53;;;5.44;89.44
11678;BME280;5895;41.950;24.372;2024-02-26T02:26:12;86350.53;;;5.44;89.32
11678;BME280;5895;41.950;24.372;2024-02-26T02:28:40;86341.84;;;5.45;88.48
11678;BME280;5895;41.950;24.372;2024-02-26T02:31:07;86341.84;;;5.45;89.25
11678;BME280;5895;41.950;24.372;2024-02-26T02:33:35;86348.56;;;5.46;88.88
11678;BME280;5895;41.950;24.372;2024-02-26T02:36:03;86352.13;;;5.45;89.08
11678;BME280;5895;41.950;24.372;2024-02-26T02:38:36;86346.97;;;5.45;89.30
11678;BME280;5895;41.950;24.372;2024-02-26T02:41:03;86343.59;;;5.44;89.10
11678;BME280;5895;41.950;24.372;2024-02-26T02:43:30;86345.38;;;5.44;88.93
11678;BME280;5895;41.950;24.372;2024-02-26T02:45:57;86340.25;;;5.44;88.95
11678;BME280;5895;41.950;24.372;2024-02-26T02:48:24;86345.38;;;5.44;88.76
11678;BME280;5895;41.950;24.372;2024-02-26T02:50:52;86352.69;;;5.47;89.33
11678;BME280;5895;41.950;24.372;2024-02-26T02:53:19;86342.41;;;5.47;88.64
11678;BME280;5895;41.950;24.372;2024-02-26T02:55:47;86348.56;;;5.46;89.31
11678;BME280;5895;41.950;24.372;2024-02-26T02:58:15;86336.69;;;5.45;89.26
11678;BME280;5895;41.950;24.372;2024-02-26T03:00:42;86340.63;;;5.47;89.26
11678;BME280;5895;41.950;24.372;2024-02-26T03:03:09;86325.97;;;5.48;89.14
11678;BME280;5895;41.950;24.372;2024-02-26T03:05:36;86326.53;;;5.50;89.27
11678;BME280;5895;41.950;24.372;2024-02-26T03:08:04;86327.34;;;5.50;89.14
11678;BME280;5895;41.950;24.372;2024-02-26T03:10:31;86329.69;;;5.52;88.61
11678;BME280;5895;41.950;24.372;2024-02-26T03:12:59;86330.72;;;5.51;89.23
11678;BME280;5895;41.950;24.372;2024-02-26T03:15:26;86334.84;;;5.52;89.38
11678;BME280;5895;41.950;24.372;2024-02-26T03:17:53;86329.09;;;5.50;89.75
11678;BME280;5895;41.950;24.372;2024-02-26T03:20:20;86326.53;;;5.50;90.08
11678;BME280;5895;41.950;24.372;2024-02-26T03:22:48;86323.97;;;5.50;90.09
11678;BME280;5895;41.950;24.372;2024-02-26T03:25:15;86325.56;;;5.51;89.48
11678;BME280;5895;41.950;24.372;2024-02-26T03:27:42;86326.75;;;5.48;89.67
11678;BME280;5895;41.950;24.372;2024-02-26T03:30:11;86323.56;;;5.53;88.86
11678;BME280;5895;41.950;24.372;2024-02-26T03:32:38;86334.41;;;5.55;88.98
11678;BME280;5895;41.950;24.372;2024-02-26T03:35:05;86352.03;;;5.58;88.83
11678;BME280;5895;41.950;24.372;2024-02-26T03:37:32;86343.28;;;5.59;89.34
11678;BME280;5895;41.950;24.372;2024-02-26T03:40:00;86344.09;;;5.60;88.58
11678;BME280;5895;41.950;24.372;2024-02-26T03:42:27;86342.28;;;5.60;88.86
11678;BME280;5895;41.950;24.372;2024-02-26T03:44:54;86344.47;;;5.63;89.29
11678;BME280;5895;41.950;24.372;2024-02-26T03:47:22;86342.66;;;5.64;88.84
11678;BME280;5895;41.950;24.372;2024-02-26T03:49:49;86340.88;;;5.64;88.55
11678;BME280;5895;41.950;24.372;2024-02-26T03:52:16;86337.75;;;5.62;88.52
11678;BME280;5895;41.950;24.372;2024-02-26T03:54:43;86347.19;;;5.68;88.40
11678;BME280;5895;41.950;24.372;2024-02-26T03:57:10;86346.19;;;5.69;88.11
11678;BME280;5895;41.950;24.372;2024-02-26T03:59:37;86348.75;;;5.69;88.42
11678;BME280;5895;41.950;24.372;2024-02-26T04:02:05;86351.91;;;5.71;88.63
11678;BME280;5895;41.950;24.372;2024-02-26T04:04:35;86348.75;;;5.69;88.40
11678;BME280;5895;41.950;24.372;2024-02-26T04:07:02;86346.75;;;5.71;88.88
11678;BME280;5895;41.950;24.372;2024-02-26T04:09:31;86351.13;;;5.71;89.32
11678;BME280;5895;41.950;24.372;2024-02-26T04:11:58;86340.59;;;5.72;88.84
11678;BME280;5895;41.950;24.372;2024-02-26T04:14:25;86323.81;;;5.70;89.77
11678;BME280;5895;41.950;24.372;2024-02-26T04:16:52;86321.47;;;5.68;89.63
11678;BME280;5895;41.950;24.372;2024-02-26T04:19:20;86326.22;;;5.65;90.25
11678;BME280;5895;41.950;24.372;2024-02-26T04:21:48;86331.81;;;5.62;90.32
11678;BME280;5895;41.950;24.372;2024-02-26T04:24:15;86322.72;;;5.59;89.15
11678;BME280;5895;41.950;24.372;2024-02-26T04:26:43;86324.50;;;5.58;88.54
11678;BME280;5895;41.950;24.372;2024-02-26T04:29:10;86329.03;;;5.63;88.07
11678;BME280;5895;41.950;24.372;2024-02-26T04:31:37;86325.44;;;5.64;86.87
11678;BME280;5895;41.950;24.372;2024-02-26T04:34:05;86332.75;;;5.67;86.19
11678;BME280;5895;41.950;24.372;2024-02-26T04:36:32;86329.75;;;5.70;85.44
11678;BME280;5895;41.950;24.372;2024-02-26T04:39:00;86334.91;;;5.70;84.95
11678;BME280;5895;41.950;24.372;2024-02-26T04:41:28;86335.28;;;5.74;84.97
11678;BME280;5895;41.950;24.372;2024-02-26T04:43:55;86335.28;;;5.74;85.61
11678;BME280;5895;41.950;24.372;2024-02-26T04:46:22;86329.91;;;5.75;86.03
11678;BME280;5895;41.950;24.372;2024-02-26T04:48:49;86330.47;;;5.77;85.78
11678;BME280;5895;41.950;24.372;2024-02-26T04:51:16;86335.06;;;5.75;86.28
11678;BME280;5895;41.950;24.372;2024-02-26T04:53:46;86338.63;;;5.74;86.46
11678;BME280;5895;41.950;24.372;2024-02-26T04:56:14;86339.63;;;5.73;86.89
11678;BME280;5895;41.950;24.372;2024-02-26T04:58:41;86339.03;;;5.71;87.39
11678;BME280;5895;41.950;24.372;2024-02-26T05:01:09;86333.88;;;5.71;87.20
11678;BME280;5895;41.950;24.372;2024-02-26T05:03:36;86343.63;;;5.69;87.60
11678;BME280;5895;41.950;24.372;2024-02-26T05:06:04;86335.75;;;5.64;88.01
11678;BME280;5895;41.950;24.372;2024-02-26T05:08:32;86336.75;;;5.63;88.55
11678;BME280;5895;41.950;24.372;2024-02-26T05:10:59;86338.16;;;5.59;88.96
11678;BME280;5895;41.950;24.372;2024-02-26T05:13:29;86337.00;;;5.55;89.52
11678;BME280;5895;41.950;24.372;2024-02-26T05:15:56;86347.13;;;5.50;89.65
11678;BME280;5895;41.950;24.372;2024-02-26T05:18:24;86349.13;;;5.48;89.91
11678;BME280;5895;41.950;24.372;2024-02-26T05:20:51;86351.13;;;5.46;89.88
11678;BME280;5895;41.950;24.372;2024-02-26T05:23:18;86354.09;;;5.43;90.48
11678;BME280;5895;41.950;24.372;2024-02-26T05:25:45;86358.09;;;5.39;90.47
11678;BME280;5895;41.950;24.372;2024-02-26T05:28:13;86363.22;;;5.39;90.58
11678;BME280;5895;41.950;24.372;2024-02-26T05:30:43;86357.91;;;5.40;90.65
11678;BME280;5895;41.950;24.372;2024-02-26T05:33:10;86369.97;;;5.40;90.58
11678;BME280;5895;41.950;24.372;2024-02-26T05:35:38;86365.22;;;5.37;90.25
11678;BME280;5895;41.950;24.372;2024-02-26T05:38:06;86370.81;;;5.34;90.27
11678;BME280;5895;41.950;24.372;2024-02-26T05:40:33;86370.81;;;5.34;90.25
11678;BME280;5895;41.950;24.372;2024-02-26T05:43:00;86373.16;;;5.35;90.16
11678;BME280;5895;41.950;24.372;2024-02-26T05:45:27;86379.09;;;5.36;90.50
11678;BME280;5895;41.950;24.372;2024-02-26T05:47:55;86377.53;;;5.35;90.53
11678;BME280;5895;41.950;24.372;2024-02-26T05:50:22;86378.31;;;5.35;90.64
11678;BME280;5895;41.950;24.372;2024-02-26T05:52:49;86380.66;;;5.37;90.85
11678;BME280;5895;41.950;24.372;2024-02-26T05:55:16;86380.44;;;5.38;91.02
11678;BME280;5895;41.950;24.372;2024-02-26T05:57:44;86376.69;;;5.41;91.14
11678;BME280;5895;41.950;24.372;2024-02-26T06:00:12;86385.41;;;5.40;91.53
11678;BME280;5895;41.950;24.372;2024-02-26T06:02:39;86384.63;;;5.39;91.20
11678;BME280;5895;41.950;24.372;2024-02-26T06:05:08;86389.75;;;5.39;90.81
11678;BME280;5895;41.950;24.372;2024-02-26T06:07:35;86388.16;;;5.45;91.36
11678;BME280;5895;41.950;24.372;2024-02-26T06:10:02;86384.97;;;5.43;91.51
11678;BME280;5895;41.950;24.372;2024-02-26T06:12:30;86395.66;;;5.46;90.62
11678;BME280;5895;41.950;24.372;2024-02-26T06:14:58;86389.91;;;5.44;90.08
11678;BME280;5895;41.950;24.372;2024-02-26T06:17:26;86389.72;;;5.46;89.50
11678;BME280;5895;41.950;24.372;2024-02-26T06:19:54;86395.66;;;5.46;89.63
11678;BME280;5895;41.950;24.372;2024-02-26T06:22:23;86399.56;;;5.49;89.85
11678;BME280;5895;41.950;24.372;2024-02-26T06:24:50;86393.25;;;5.51;89.65
11678;BME280;5895;41.950;24.372;2024-02-26T06:27:17;86398.75;;;5.55;89.29
11678;BME280;5895;41.950;24.372;2024-02-26T06:29:44;86382.91;;;5.58;89.26
11678;BME280;5895;41.950;24.372;2024-02-26T06:32:11;86390.19;;;5.61;89.89
11678;BME280;5895;41.950;24.372;2024-02-26T06:34:38;86378.13;;;5.62;89.48
11678;BME280;5895;41.950;24.372;2024-02-26T06:37:07;86385.19;;;5.66;89.78
11678;BME280;5895;41.950;24.372;2024-02-26T06:39:36;86385.38;;;5.71;89.80
11678;BME280;5895;41.950;24.372;2024-02-26T06:42:04;86390.31;;;5.73;89.62
11678;BME280;5895;41.950;24.372;2024-02-26T06:44:31;86398.63;;;5.75;89.74
11678;BME280;5895;41.950;24.372;2024-02-26T06:46:59;86405.13;;;5.77;89.73
11678;BME280;5895;41.950;24.372;2024-02-26T06:49:26;86412.81;;;5.84;89.44
11678;BME280;5895;41.950;24.372;2024-02-26T06:51:53;86406.44;;;5.87;89.13
11678;BME280;5895;41.950;24.372;2024-02-26T06:54:20;86401.47;;;5.92;88.64
11678;BME280;5895;41.950;24.372;2024-02-26T06:56:49;86403.22;;;5.98;88.94
11678;BME280;5895;41.950;24.372;2024-02-26T06:59:16;86409.53;;;6.02;88.29
11678;BME280;5895;41.950;24.372;2024-02-26T07:01:43;86407.91;;;6.07;87.66
11678;BME280;5895;41.950;24.372;2024-02-26T07:04:10;86409.41;;;6.15;87.90
11678;BME280;5895;41.950;24.372;2024-02-26T07:06:37;86406.97;;;6.20;88.74
11678;BME280;5895;41.950;24.372;2024-02-26T07:09:04;86405.56;;;6.24;87.45
11678;BME280;5895;41.950;24.372;2024-02-26T07:11:31;86411.66;;;6.30;86.58
11678;BME280;5895;41.950;24.372;2024-02-26T07:13:59;86404.88;;;6.35;85.58
11678;BME280;5895;41.950;24.372;2024-02-26T07:16:27;86407.59;;;6.41;85.19
11678;BME280;5895;41.950;24.372;2024-02-26T07:18:54;86406.75;;;6.47;83.14
11678;BME280;5895;41.950;24.372;2024-02-26T07:21:21;86400.72;;;6.53;82.74
11678;BME280;5895;41.950;24.372;2024-02-26T07:23:48;86406.03;;;6.58;81.65
11678;BME280;5895;41.950;24.372;2024-02-26T07:26:15;86402.00;;;6.62;81.77
11678;BME280;5895;41.950;24.372;2024-02-26T07:28:44;86400.81;;;6.65;80.13
11678;BME280;5895;41.950;24.372;2024-02-26T07:31:12;86400.59;;;6.66;80.90
11678;BME280;5895;41.950;24.372;2024-02-26T07:33:39;86403.09;;;6.73;80.74
11678;BME280;5895;41.950;24.372;2024-02-26T07:36:06;86410.19;;;6.77;81.84
11678;BME280;5895;41.950;24.372;2024-02-26T07:38:34;86407.19;;;6.80;84.17
11678;BME280;5895;41.950;24.372;2024-02-26T07:41:01;86412.69;;;6.84;84.14
11678;BME280;5895;41.950;24.372;2024-02-26T07:43:29;86412.03;;;6.88;84.03
11678;BME280;5895;41.950;24.372;2024-02-26T07:45:56;86405.47;;;6.93;84.21
11678;BME280;5895;41.950;24.372;2024-02-26T07:48:25;86410.53;;;6.99;83.45
11678;BME280;5895;41.950;24.372;2024-02-26T07:50:52;86404.19;;;7.02;82.24
11678;BME280;5895;41.950;24.372;2024-02-26T07:53:19;86407.69;;;7.07;82.12
11678;BME280;5895;41.950;24.372;2024-02-26T07:55:46;86408.38;;;7.14;82.51
11678;BME280;5895;41.950;24.372;2024-02-26T07:58:14;86404.72;;;7.22;81.69
11678;BME280;5895;41.950;24.372;2024-02-26T08:00:41;86400.25;;;7.29;81.48
11678;BME280;5895;41.950;24.372;2024-02-26T08:03:08;86393.22;;;7.36;81.30
11678;BME280;5895;41.950;24.372;2024-02-26T08:05:39;86388.53;;;7.45;79.74
11678;BME280;5895;41.950;24.372;2024-02-26T08:08:08;86394.19;;;7.54;79.87
11678;BME280;5895;41.950;24.372;2024-02-26T08:10:38;86393.44;;;7.65;78.79
11678;BME280;5895;41.950;24.372;2024-02-26T08:13:08;86391.88;;;7.76;78.99
11678;BME280;5895;41.950;24.372;2024-02-26T08:15:35;86393.91;;;7.85;77.11
11678;BME280;5895;41.950;24.372;2024-02-26T08:18:03;86400.91;;;7.96;76.70
11678;BME280;5895;41.950;24.372;2024-02-26T08:20:31;86395.97;;;8.07;76.60
11678;BME280;5895;41.950;24.372;2024-02-26T08:22:59;86391.50;;;8.14;76.04
11678;BME280;5895;41.950;24.372;2024-02-26T08:25:26;86393.22;;;8.20;75.61
11678;BME280;5895;41.950;24.372;2024-02-26T08:27:53;86393.31;;;8.25;75.24
11678;BME280;5895;41.950;24.372;2024-02-26T08:30:20;86393.22;;;8.32;75.54
11678;BME280;5895;41.950;24.372;2024-02-26T08:32:48;86397.41;;;8.44;74.96
11678;BME280;5895;41.950;24.372;2024-02-26T08:35:15;86392.56;;;8.60;74.62
11678;BME280;5895;41.950;24.372;2024-02-26T08:37:44;86394.25;;;8.66;73.82
11678;BME280;5895;41.950;24.372;2024-02-26T08:40:13;86397.84;;;8.65;73.44
11678;BME280;5895;41.950;24.372;2024-02-26T08:42:40;86400.22;;;8.66;73.68
11678;BME280;5895;41.950;24.372;2024-02-26T08:45:08;86402.78;;;8.66;73.99
11678;BME280;5895;41.950;24.372;2024-02-26T08:47:35;86404.13;;;8.69;73.96
11678;BME280;5895;41.950;24.372;2024-02-26T08:50:04;86399.75;;;8.69;73.80
11678;BME280;5895;41.950;24.372;2024-02-26T08:52:32;86400.09;;;8.73;73.53
11678;BME280;5895;41.950;24.372;2024-02-26T08:54:59;86398.06;;;8.75;73.13
11678;BME280;5895;41.950;24.372;2024-02-26T08:57:28;86393.56;;;8.82;72.31
11678;BME280;5895;41.950;24.372;2024-02-26T08:59:55;86401.63;;;8.86;72.26
11678;BME280;5895;41.950;24.372;2024-02-26T09:02:22;86401.44;;;8.87;72.31
11678;BME280;5895;41.950;24.372;2024-02-26T09:04:49;86393.69;;;8.87;71.98
11678;BME280;5895;41.950;24.372;2024-02-26T09:07:16;86386.47;;;8.89;71.54
11678;BME280;5895;41.950;24.372;2024-02-26T09:09:43;86393.31;;;8.95;71.65
11678;BME280;5895;41.950;24.372;2024-02-26T09:12:10;86399.13;;;9.02;72.26
11678;BME280;5895;41.950;24.372;2024-02-26T09:14:39;86393.53;;;9.06;72.06
11678;BME280;5895;41.950;24.372;2024-02-26T09:17:06;86390.47;;;9.09;71.50
11678;BME280;5895;41.950;24.372;2024-02-26T09:19:33;86390.56;;;9.14;71.25
11678;BME280;5895;41.950;24.372;2024-02-26T09:22:00;86396.31;;;9.16;71.29
11678;BME280;5895;41.950;24.372;2024-02-26T09:24:27;86389.34;;;9.16;71.09
11678;BME280;5895;41.950;24.372;2024-02-26T09:26:55;86387.63;;;9.22;71.16
11678;BME280;5895;41.950;24.372;2024-02-26T09:29:22;86383.59;;;9.26;71.24
11678;BME280;5895;41.950;24.372;2024-02-26T09:31:50;86385.78;;;9.34;70.02
11678;BME280;5895;41.950;24.372;2024-02-26T09:34:17;86389.59;;;9.43;71.09
11678;BME280;5895;41.950;24.372;2024-02-26T09:36:44;86381.47;;;9.51;70.52
11678;BME280;5895;41.950;24.372;2024-02-26T09:39:11;86385.25;;;9.61;71.26
11678;BME280;5895;41.950;24.372;2024-02-26T09:41:40;86378.22;;;9.73;70.59
11678;BME280;5895;41.950;24.372;2024-02-26T09:44:08;86377.91;;;9.86;70.25
11678;BME280;5895;41.950;24.372;2024-02-26T09:46:36;86376.53;;;9.95;69.61
11678;BME280;5895;41.950;24.372;2024-02-26T09:49:06;86369.63;;;10.01;69.25
11678;BME280;5895;41.950;24.372;2024-02-26T09:51:33;86376.72;;;10.05;69.35
11678;BME280;5895;41.950;24.372;2024-02-26T09:54:01;86373.41;;;10.10;69.18
11678;BME280;5895;41.950;24.372;2024-02-26T09:56:28;86370.75;;;10.05;68.52
11678;BME280;5895;41.950;24.372;2024-02-26T09:58:58;86363.19;;;10.03;68.63
11678;BME280;5895;41.950;24.372;2024-02-26T10:01:26;86376.53;;;9.95;68.39
11678;BME280;5895;41.950;24.372;2024-02-26T10:03:56;86363.03;;;9.93;67.68
11678;BME280;5895;41.950;24.372;2024-02-26T10:06:26;86360.66;;;9.92;68.66
11678;BME280;5895;41.950;24.372;2024-02-26T10:08:54;86356.16;;;9.87;69.89
11678;BME280;5895;41.950;24.372;2024-02-26T10:11:24;86355.19;;;9.88;69.91
11678;BME280;5895;41.950;24.372;2024-02-26T10:13:51;86358.22;;;9.85;69.48
11678;BME280;5895;41.950;24.372;2024-02-26T10:16:19;86357.19;;;9.86;69.41
11678;BME280;5895;41.950;24.372;2024-02-26T10:18:47;86354.59;;;9.86;69.62
11678;BME280;5895;41.950;24.372;2024-02-26T10:21:16;86352.34;;;9.90;69.99
11678;BME280;5895;41.950;24.372;2024-02-26T10:23:45;86349.06;;;9.94;69.85
11678;BME280;5895;41.950;24.372;2024-02-26T10:26:13;86343.09;;;9.94;70.22
11678;BME280;5895;41.950;24.372;2024-02-26T10:28:41;86346.38;;;9.89;69.34
11678;BME280;5895;41.950;24.372;2024-02-26T10:31:09;86343.69;;;9.84;70.50
11678;BME280;5895;41.950;24.372;2024-02-26T10:33:37;86351.38;;;9.79;71.07
11678;BME280;5895;41.950;24.372;2024-02-26T10:36:05;86345.66;;;9.77;71.02
11678;BME280;5895;41.950;24.372;2024-02-26T10:38:34;86348.69;;;9.74;71.12
11678;BME280;5895;41.950;24.372;2024-02-26T10:41:03;86346.91;;;9.74;69.81
11678;BME280;5895;41.950;24.372;2024-02-26T10:43:30;86343.53;;;9.74;71.20
11678;BME280;5895;41.950;24.372;2024-02-26T10:45:58;86340.69;;;9.75;71.47
11678;BME280;5895;41.950;24.372;2024-02-26T10:48:25;86331.09;;;9.76;70.69
11678;BME280;5895;41.950;24.372;2024-02-26T10:50:52;86334.28;;;9.78;70.90
11678;BME280;5895;41.950;24.372;2024-02-26T10:53:21;86340.22;;;9.78;70.94
11678;BME280;5895;41.950;24.372;2024-02-26T10:55:49;86329.09;;;9.78;70.59
11678;BME280;5895;41.950;24.372;2024-02-26T10:58:20;86336.63;;;9.79;70.25
11678;BME280;5895;41.950;24.372;2024-02-26T11:00:50;86326.75;;;9.93;nan
11678;BME280;5895;41.950;24.372;2024-02-26T11:03:18;86328.69;;;10.03;69.80
11678;BME280;5895;41.950;24.372;2024-02-26T11:05:47;86325.75;;;10.28;68.42
11678;BME280;5895;41.950;24.372;2024-02-26T11:08:16;86324.66;;;10.41;68.00
11678;BME280;5895;41.950;24.372;2024-02-26T11:10:47;86325.66;;;10.56;68.50
11678;BME280;5895;41.950;24.372;2024-02-26T11:13:15;86319.50;;;10.63;67.54
11678;BME280;5895;41.950;24.372;2024-02-26T11:15:46;86320.28;;;10.63;66.69
11678;BME280;5895;41.950;24.372;2024-02-26T11:18:15;86318.38;;;10.75;67.33
11678;BME280;5895;41.950;24.372;2024-02-26T11:20:43;86328.84;;;11.02;66.82
11678;BME280;5895;41.950;24.372;2024-02-26T11:23:10;86318.53;;;11.07;66.64
11678;BME280;5895;41.950;24.372;2024-02-26T11:25:37;86314.28;;;11.01;66.71
11678;BME280;5895;41.950;24.372;2024-02-26T11:28:08;86313.72;;;10.99;64.45
11678;BME280;5895;41.950;24.372;2024-02-26T11:30:40;86316.81;;;10.96;64.01
11678;BME280;5895;41.950;24.372;2024-02-26T11:33:11;86317.38;;;10.98;62.92
11678;BME280;5895;41.950;24.372;2024-02-26T11:35:39;86306.91;;;10.93;65.93
11678;BME280;5895;41.950;24.372;2024-02-26T11:38:06;86308.47;;;10.94;66.45
11678;BME280;5895;41.950;24.372;2024-02-26T11:40:37;86312.03;;;10.88;67.17
11678;BME280;5895;41.950;24.372;2024-02-26T11:43:06;86303.72;;;10.86;67.92
11678;BME280;5895;41.950;24.372;2024-02-26T11:45:52;86309.50;;;10.93;59.54
11678;BME280;5895;41.950;24.372;2024-02-26T11:48:22;86305.28;;;10.87;64.56
11678;BME280;5895;41.950;24.372;2024-02-26T11:50:51;86313.00;;;10.82;65.91
11678;BME280;5895;41.950;24.372;2024-02-26T11:53:26;86309.38;;;10.83;61.43
11678;BME280;5895;41.950;24.372;2024-02-26T11:56:12;86298.59;;;10.91;58.46
11678;BME280;5895;41.950;24.372;2024-02-26T11:58:39;86302.50;;;10.94;65.83
11678;BME280;5895;41.950;24.372;2024-02-26T12:01:37;86298.53;;;10.86;57.55
11678;BME280;5895;41.950;24.372;2024-02-26T12:04:07;86307.22;;;10.75;63.00
11678;BME280;5895;41.950;24.372;2024-02-26T12:06:46;86295.13;;;10.64;61.90
11678;BME280;5895;41.950;24.372;2024-02-26T12:09:13;86301.81;;;10.59;66.79
11678;BME280;5895;41.950;24.372;2024-02-26T12:11:41;86299.31;;;10.48;67.21
11678;BME280;5895;41.950;24.372;2024-02-26T12:14:09;86299.13;;;10.32;67.61
11678;BME280;5895;41.950;24.372;2024-02-26T12:16:38;86296.56;;;10.21;67.98
11678;BME280;5895;41.950;24.372;2024-02-26T12:19:08;86298.00;;;10.12;66.68
11678;BME280;5895;41.950;24.372;2024-02-26T12:21:37;86293.28;;;10.08;67.94
11678;BME280;5895;41.950;24.372;2024-02-26T12:24:12;86294.22;;;10.02;64.19
11678;BME280;5895;41.950;24.372;2024-02-26T12:26:39;86293.13;;;9.98;67.47
11678;BME280;5895;41.950;24.372;2024-02-26T12:29:06;86300.84;;;9.93;68.08
11678;BME280;5895;41.950;24.372;2024-02-26T12:31:34;86296.91;;;9.91;68.21
11678;BME280;5895;41.950;24.372;2024-02-26T12:34:02;86296.56;;;9.87;67.30
11678;BME280;5895;41.950;24.372;2024-02-26T12:36:31;86291.56;;;9.80;66.52
11678;BME280;5895;41.950;24.372;2024-02-26T12:38:59;86295.16;;;9.79;67.25
11678;BME280;5895;41.950;24.372;2024-02-26T12:41:27;86297.22;;;9.77;68.16
11678;BME280;5895;41.950;24.372;2024-02-26T12:43:55;86293.84;;;9.77;68.27
11678;BME280;5895;41.950;24.372;2024-02-26T12:46:24;86294.84;;;9.76;68.18
11678;BME280;5895;41.950;24.372;2024-02-26T12:48:51;86294.38;;;9.79;67.61
11678;BME280;5895;41.950;24.372;2024-02-26T12:51:19;86289.91;;;9.74;67.72
11678;BME280;5895;41.950;24.372;2024-02-26T12:53:49;86294.22;;;9.69;66.07
11678;BME280;5895;41.950;24.372;2024-02-26T12:56:18;86289.97;;;9.63;68.59
11678;BME280;5895;41.950;24.372;2024-02-26T12:58:45;86290.22;;;9.61;68.96
11678;BME280;5895;41.950;24.372;2024-02-26T13:01:14;86299.22;;;9.59;68.44
11678;BME280;5895;41.950;24.372;2024-02-26T13:03:43;86295.31;;;9.56;69.32
11678;BME280;5895;41.950;24.372;2024-02-26T13:06:11;86290.59;;;9.53;69.17
11678;BME280;5895;41.950;24.372;2024-02-26T13:08:38;86291.06;;;9.50;69.16
11678;BME280;5895;41.950;24.372;2024-02-26T13:11:07;86292.31;;;9.47;70.10
11678;BME280;5895;41.950;24.372;2024-02-26T13:13:35;86300.31;;;9.46;69.97